sensor_id;sensor_type;location;lat;lon;timestamp;P1;durP1;ratioP1;P2;durP2;ratioP2
36315;SDS011;22343;50.820;2.666;2024-01-30T00:02:37;4.27;;;2.00;;
36315;SDS011;22343;50.820;2.666;2024-01-30T00:05:24;4.63;;;2.40;;
36315;SDS011;22343;50.820;2.666;2024-01-30T00:08:08;2.43;;;2.03;;
36315;SDS011;22343;50.820;2.666;2024-01-30T00:10:56;3.17;;;2.70;;
36315;SDS011;22343;50.820;2.666;2024-01-30T00:13:40;2.47;;;2.27;;
36315;SDS011;22343;50.820;2.666;2024-01-30T00:16:26;2.90;;;2.30;;
36315;SDS011;22343;50.820;2.666;2024-01-30T00:19:13;4.20;;;2.77;;
36315;SDS011;22343;50.820;2.666;2024-01-30T00:21:57;2.67;;;2.20;;
36315;SDS011;22343;50.820;2.666;2024-01-30T00:24:45;2.33;;;2.13;;
36315;SDS011;22343;50.820;2.666;2024-01-30T00:27:32;2.77;;;2.40;;
36315;SDS011;22343;50.820;2.666;2024-01-30T00:30:18;7.43;;;2.67;;
36315;SDS011;22343;50.820;2.666;2024-01-30T00:33:04;2.03;;;1.93;;
36315;SDS011;22343;50.820;2.666;2024-01-30T00:35:50;3.03;;;2.17;;
36315;SDS011;22343;50.820;2.666;2024-01-30T00:38:35;2.37;;;2.17;;
36315;SDS011;22343;50.820;2.666;2024-01-30T00:41:22;2.23;;;2.03;;
36315;SDS011;22343;50.820;2.666;2024-01-30T00:44:07;3.37;;;2.20;;
36315;SDS011;22343;50.820;2.666;2024-01-30T00:46:54;2.53;;;2.33;;
36315;SDS011;22343;50.820;2.666;2024-01-30T00:49:40;2.63;;;2.43;;
36315;SDS011;22343;50.820;2.666;2024-01-30T00:52:24;2.43;;;2.03;;
36315;SDS011;22343;50.820;2.666;2024-01-30T00:55:09;5.23;;;2.30;;
36315;SDS011;22343;50.820;2.666;2024-01-30T00:57:54;4.23;;;2.70;;
36315;SDS011;22343;50.820;2.666;2024-01-30T01:00:40;5.77;;;2.80;;
36315;SDS011;22343;50.820;2.666;2024-01-30T01:03:25;14.77;;;3.00;;
36315;SDS011;22343;50.820;2.666;2024-01-30T01:06:11;4.20;;;2.80;;
36315;SDS011;22343;50.820;2.666;2024-01-30T01:08:57;4.63;;;2.50;;
36315;SDS011;22343;50.820;2.666;2024-01-30T01:11:43;4.10;;;3.03;;
36315;SDS011;22343;50.820;2.666;2024-01-30T01:14:29;3.70;;;2.97;;
36315;SDS011;22343;50.820;2.666;2024-01-30T01:17:14;5.03;;;2.80;;
36315;SDS011;22343;50.820;2.666;2024-01-30T01:19:58;2.40;;;2.20;;
36315;SDS011;22343;50.820;2.666;2024-01-30T01:22:44;3.23;;;2.87;;
36315;SDS011;22343;50.820;2.666;2024-01-30T01:25:30;3.97;;;2.43;;
36315;SDS011;22343;50.820;2.666;2024-01-30T01:28:14;3.43;;;2.47;;
36315;SDS011;22343;50.820;2.666;2024-01-30T01:31:00;3.80;;;2.70;;
36315;SDS011;22343;50.820;2.666;2024-01-30T01:33:49;3.50;;;2.80;;
36315;SDS011;22343;50.820;2.666;2024-01-30T01:36:35;4.40;;;2.93;;
36315;SDS011;22343;50.820;2.666;2024-01-30T01:39:22;4.43;;;3.33;;
36315;SDS011;22343;50.820;2.666;2024-01-30T01:42:08;3.53;;;2.20;;
36315;SDS011;22343;50.820;2.666;2024-01-30T01:44:54;5.23;;;3.20;;
36315;SDS011;22343;50.820;2.666;2024-01-30T01:47:40;3.03;;;2.20;;
36315;SDS011;22343;50.820;2.666;2024-01-30T01:50:25;2.87;;;2.47;;
36315;SDS011;22343;50.820;2.666;2024-01-30T01:53:13;5.30;;;3.27;;
36315;SDS011;22343;50.820;2.666;2024-01-30T01:55:59;3.97;;;2.23;;
36315;SDS011;22343;50.820;2.666;2024-01-30T01:58:44;3.20;;;2.87;;
36315;SDS011;22343;50.820;2.666;2024-01-30T02:01:30;3.47;;;2.50;;
36315;SDS011;22343;50.820;2.666;2024-01-30T02:04:16;9.60;;;3.03;;
36315;SDS011;22343;50.820;2.666;2024-01-30T02:07:02;5.43;;;2.50;;
36315;SDS011;22343;50.820;2.666;2024-01-30T02:09:48;3.97;;;2.30;;
36315;SDS011;22343;50.820;2.666;2024-01-30T02:12:36;6.47;;;2.50;;
36315;SDS011;22343;50.820;2.666;2024-01-30T02:15:21;3.67;;;2.60;;
36315;SDS011;22343;50.820;2.666;2024-01-30T02:18:08;4.47;;;2.27;;
36315;SDS011;22343;50.820;2.666;2024-01-30T02:20:54;2.73;;;2.30;;
36315;SDS011;22343;50.820;2.666;2024-01-30T02:23:43;5.50;;;3.67;;
36315;SDS011;22343;50.820;2.666;2024-01-30T02:26:30;3.97;;;3.00;;
36315;SDS011;22343;50.820;2.666;2024-01-30T02:29:15;3.37;;;2.37;;
36315;SDS011;22343;50.820;2.666;2024-01-30T02:32:01;7.03;;;3.10;;
36315;SDS011;22343;50.820;2.666;2024-01-30T02:34:46;4.10;;;2.87;;
36315;SDS011;22343;50.820;2.666;2024-01-30T02:37:31;3.30;;;2.90;;
36315;SDS011;22343;50.820;2.666;2024-01-30T02:40:16;3.63;;;3.30;;
36315;SDS011;22343;50.820;2.666;2024-01-30T02:43:02;16.53;;;3.63;;
36315;SDS011;22343;50.820;2.666;2024-01-30T02:45:47;5.17;;;2.80;;
36315;SDS011;22343;50.820;2.666;2024-01-30T02:48:32;2.97;;;2.70;;
36315;SDS011;22343;50.820;2.666;2024-01-30T02:51:17;4.30;;;2.97;;
36315;SDS011;22343;50.820;2.666;2024-01-30T02:54:02;2.70;;;2.37;;
36315;SDS011;22343;50.820;2.666;2024-01-30T02:56:47;3.03;;;2.57;;
36315;SDS011;22343;50.820;2.666;2024-01-30T02:59:34;4.50;;;3.10;;
36315;SDS011;22343;50.820;2.666;2024-01-30T03:02:20;4.20;;;2.70;;
36315;SDS011;22343;50.820;2.666;2024-01-30T03:05:05;3.77;;;2.60;;
36315;SDS011;22343;50.820;2.666;2024-01-30T03:07:54;3.40;;;2.40;;
36315;SDS011;22343;50.820;2.666;2024-01-30T03:10:40;4.30;;;2.70;;
36315;SDS011;22343;50.820;2.666;2024-01-30T03:13:27;4.43;;;2.47;;
36315;SDS011;22343;50.820;2.666;2024-01-30T03:16:12;3.33;;;2.63;;
36315;SDS011;22343;50.820;2.666;2024-01-30T03:18:59;4.27;;;2.90;;
36315;SDS011;22343;50.820;2.666;2024-01-30T03:21:45;3.40;;;2.70;;
36315;SDS011;22343;50.820;2.666;2024-01-30T03:24:32;4.03;;;2.30;;
36315;SDS011;22343;50.820;2.666;2024-01-30T03:27:19;3.53;;;2.50;;
36315;SDS011;22343;50.820;2.666;2024-01-30T03:30:05;2.60;;;2.13;;
36315;SDS011;22343;50.820;2.666;2024-01-30T03:32:51;2.30;;;2.10;;
36315;SDS011;22343;50.820;2.666;2024-01-30T03:35:38;3.03;;;2.63;;
36315;SDS011;22343;50.820;2.666;2024-01-30T03:38:24;5.37;;;3.00;;
36315;SDS011;22343;50.820;2.666;2024-01-30T03:41:09;2.70;;;2.37;;
36315;SDS011;22343;50.820;2.666;2024-01-30T03:43:57;3.47;;;3.03;;
36315;SDS011;22343;50.820;2.666;2024-01-30T03:46:42;4.03;;;2.20;;
36315;SDS011;22343;50.820;2.666;2024-01-30T03:49:28;2.53;;;2.33;;
36315;SDS011;22343;50.820;2.666;2024-01-30T03:52:14;3.57;;;2.33;;
36315;SDS011;22343;50.820;2.666;2024-01-30T03:55:00;8.03;;;3.13;;
36315;SDS011;22343;50.820;2.666;2024-01-30T03:57:46;3.17;;;2.83;;
36315;SDS011;22343;50.820;2.666;2024-01-30T04:00:30;3.30;;;2.50;;
36315;SDS011;22343;50.820;2.666;2024-01-30T04:03:16;3.50;;;2.67;;
36315;SDS011;22343;50.820;2.666;2024-01-30T04:06:02;2.87;;;2.47;;
36315;SDS011;22343;50.820;2.666;2024-01-30T04:08:48;4.40;;;2.57;;
36315;SDS011;22343;50.820;2.666;2024-01-30T04:11:34;4.80;;;2.97;;
36315;SDS011;22343;50.820;2.666;2024-01-30T04:14:19;5.03;;;2.53;;
36315;SDS011;22343;50.820;2.666;2024-01-30T04:17:07;5.60;;;2.53;;
36315;SDS011;22343;50.820;2.666;2024-01-30T04:19:51;3.17;;;2.30;;
36315;SDS011;22343;50.820;2.666;2024-01-30T04:22:37;3.13;;;2.70;;
36315;SDS011;22343;50.820;2.666;2024-01-30T04:25:22;3.50;;;2.73;;
36315;SDS011;22343;50.820;2.666;2024-01-30T04:28:08;5.93;;;3.20;;
36315;SDS011;22343;50.820;2.666;2024-01-30T04:30:58;3.43;;;2.57;;
36315;SDS011;22343;50.820;2.666;2024-01-30T04:33:47;5.30;;;2.33;;
36315;SDS011;22343;50.820;2.666;2024-01-30T04:36:34;3.80;;;2.30;;
36315;SDS011;22343;50.820;2.666;2024-01-30T04:39:19;3.67;;;2.33;;
36315;SDS011;22343;50.820;2.666;2024-01-30T04:42:05;3.57;;;2.47;;
36315;SDS011;22343;50.820;2.666;2024-01-30T04:44:51;2.87;;;2.33;;
36315;SDS011;22343;50.820;2.666;2024-01-30T04:47:36;3.73;;;2.70;;
36315;SDS011;22343;50.820;2.666;2024-01-30T04:50:25;3.37;;;2.53;;
36315;SDS011;22343;50.820;2.666;2024-01-30T04:53:12;4.13;;;2.70;;
36315;SDS011;22343;50.820;2.666;2024-01-30T04:55:58;2.50;;;2.20;;
36315;SDS011;22343;50.820;2.666;2024-01-30T04:58:43;3.83;;;3.20;;
36315;SDS011;22343;50.820;2.666;2024-01-30T05:01:28;3.20;;;2.87;;
36315;SDS011;22343;50.820;2.666;2024-01-30T05:04:14;3.37;;;2.43;;
36315;SDS011;22343;50.820;2.666;2024-01-30T05:06:59;5.60;;;3.00;;
36315;SDS011;22343;50.820;2.666;2024-01-30T05:09:45;2.10;;;1.93;;
36315;SDS011;22343;50.820;2.666;2024-01-30T05:12:32;4.73;;;2.30;;
36315;SDS011;22343;50.820;2.666;2024-01-30T05:15:17;4.20;;;3.07;;
36315;SDS011;22343;50.820;2.666;2024-01-30T05:18:04;2.83;;;2.27;;
36315;SDS011;22343;50.820;2.666;2024-01-30T05:20:50;3.70;;;2.70;;
36315;SDS011;22343;50.820;2.666;2024-01-30T05:23:34;3.00;;;2.57;;
36315;SDS011;22343;50.820;2.666;2024-01-30T05:26:20;5.43;;;2.83;;
36315;SDS011;22343;50.820;2.666;2024-01-30T05:29:08;5.87;;;2.93;;
36315;SDS011;22343;50.820;2.666;2024-01-30T05:31:54;7.97;;;4.00;;
36315;SDS011;22343;50.820;2.666;2024-01-30T05:34:40;10.27;;;3.00;;
36315;SDS011;22343;50.820;2.666;2024-01-30T05:37:24;2.43;;;2.23;;
36315;SDS011;22343;50.820;2.666;2024-01-30T05:40:09;5.10;;;3.23;;
36315;SDS011;22343;50.820;2.666;2024-01-30T05:42:54;4.43;;;3.43;;
36315;SDS011;22343;50.820;2.666;2024-01-30T05:45:46;2.47;;;2.27;;
36315;SDS011;22343;50.820;2.666;2024-01-30T05:48:31;7.73;;;2.60;;
36315;SDS011;22343;50.820;2.666;2024-01-30T05:51:17;3.80;;;2.63;;
36315;SDS011;22343;50.820;2.666;2024-01-30T05:54:04;4.07;;;2.20;;
36315;SDS011;22343;50.820;2.666;2024-01-30T05:56:50;4.40;;;3.00;;
36315;SDS011;22343;50.820;2.666;2024-01-30T05:59:35;5.50;;;2.60;;
36315;SDS011;22343;50.820;2.666;2024-01-30T06:02:21;4.70;;;2.63;;
36315;SDS011;22343;50.820;2.666;2024-01-30T06:05:07;4.60;;;2.63;;
36315;SDS011;22343;50.820;2.666;2024-01-30T06:07:53;3.23;;;2.10;;
36315;SDS011;22343;50.820;2.666;2024-01-30T06:10:39;5.40;;;2.83;;
36315;SDS011;22343;50.820;2.666;2024-01-30T06:13:26;3.47;;;2.67;;
36315;SDS011;22343;50.820;2.666;2024-01-30T06:16:11;5.43;;;2.90;;
36315;SDS011;22343;50.820;2.666;2024-01-30T06:18:57;3.90;;;3.13;;
36315;SDS011;22343;50.820;2.666;2024-01-30T06:21:41;3.03;;;2.50;;
36315;SDS011;22343;50.820;2.666;2024-01-30T06:24:25;3.87;;;3.47;;
36315;SDS011;22343;50.820;2.666;2024-01-30T06:27:11;4.60;;;1.93;;
36315;SDS011;22343;50.820;2.666;2024-01-30T06:29:58;3.50;;;2.47;;
36315;SDS011;22343;50.820;2.666;2024-01-30T06:32:43;5.37;;;2.70;;
36315;SDS011;22343;50.820;2.666;2024-01-30T06:35:30;3.63;;;2.13;;
36315;SDS011;22343;50.820;2.666;2024-01-30T06:38:14;4.20;;;1.90;;
36315;SDS011;22343;50.820;2.666;2024-01-30T06:41:00;4.50;;;3.03;;
36315;SDS011;22343;50.820;2.666;2024-01-30T06:43:46;3.70;;;2.20;;
36315;SDS011;22343;50.820;2.666;2024-01-30T06:46:32;2.87;;;2.13;;
36315;SDS011;22343;50.820;2.666;2024-01-30T06:49:16;2.47;;;1.80;;
36315;SDS011;22343;50.820;2.666;2024-01-30T06:52:07;1.67;;;1.30;;
36315;SDS011;22343;50.820;2.666;2024-01-30T06:54:51;4.90;;;2.07;;
36315;SDS011;22343;50.820;2.666;2024-01-30T06:57:37;5.07;;;2.23;;
36315;SDS011;22343;50.820;2.666;2024-01-30T07:00:21;3.83;;;1.70;;
36315;SDS011;22343;50.820;2.666;2024-01-30T07:03:08;3.53;;;1.63;;
36315;SDS011;22343;50.820;2.666;2024-01-30T07:05:54;1.90;;;1.80;;
36315;SDS011;22343;50.820;2.666;2024-01-30T07:08:40;1.97;;;1.37;;
36315;SDS011;22343;50.820;2.666;2024-01-30T07:11:25;1.50;;;1.30;;
36315;SDS011;22343;50.820;2.666;2024-01-30T07:14:13;2.53;;;1.33;;
36315;SDS011;22343;50.820;2.666;2024-01-30T07:17:00;5.23;;;1.80;;
36315;SDS011;22343;50.820;2.666;2024-01-30T07:19:45;1.50;;;1.37;;
36315;SDS011;22343;50.820;2.666;2024-01-30T07:22:30;1.33;;;1.23;;
36315;SDS011;22343;50.820;2.666;2024-01-30T07:25:15;3.57;;;1.87;;
36315;SDS011;22343;50.820;2.666;2024-01-30T07:28:03;1.47;;;1.10;;
36315;SDS011;22343;50.820;2.666;2024-01-30T07:30:48;1.83;;;1.27;;
36315;SDS011;22343;50.820;2.666;2024-01-30T07:33:34;10.37;;;2.83;;
36315;SDS011;22343;50.820;2.666;2024-01-30T07:36:18;1.47;;;0.90;;
36315;SDS011;22343;50.820;2.666;2024-01-30T07:39:04;1.23;;;1.00;;
36315;SDS011;22343;50.820;2.666;2024-01-30T07:41:49;1.27;;;1.00;;
36315;SDS011;22343;50.820;2.666;2024-01-30T07:44:35;1.53;;;1.40;;
36315;SDS011;22343;50.820;2.666;2024-01-30T07:47:21;2.50;;;1.50;;
36315;SDS011;22343;50.820;2.666;2024-01-30T07:50:07;2.07;;;1.00;;
36315;SDS011;22343;50.820;2.666;2024-01-30T07:52:59;2.60;;;1.50;;
36315;SDS011;22343;50.820;2.666;2024-01-30T07:55:49;1.50;;;1.10;;
36315;SDS011;22343;50.820;2.666;2024-01-30T07:58:35;1.10;;;0.87;;
36315;SDS011;22343;50.820;2.666;2024-01-30T08:01:20;0.60;;;0.60;;
36315;SDS011;22343;50.820;2.666;2024-01-30T08:04:06;1.57;;;1.37;;
36315;SDS011;22343;50.820;2.666;2024-01-30T08:06:53;0.93;;;0.73;;
36315;SDS011;22343;50.820;2.666;2024-01-30T08:09:37;0.90;;;0.80;;
36315;SDS011;22343;50.820;2.666;2024-01-30T08:12:22;1.00;;;0.90;;
36315;SDS011;22343;50.820;2.666;2024-01-30T08:15:06;0.87;;;0.83;;
36315;SDS011;22343;50.820;2.666;2024-01-30T08:17:56;1.57;;;1.13;;
36315;SDS011;22343;50.820;2.666;2024-01-30T08:20:43;0.50;;;0.50;;
36315;SDS011;22343;50.820;2.666;2024-01-30T08:23:29;2.80;;;1.50;;
36315;SDS011;22343;50.820;2.666;2024-01-30T08:26:15;1.40;;;0.73;;
36315;SDS011;22343;50.820;2.666;2024-01-30T08:29:00;2.30;;;0.77;;
36315;SDS011;22343;50.820;2.666;2024-01-30T08:31:45;1.10;;;0.80;;
36315;SDS011;22343;50.820;2.666;2024-01-30T08:34:32;1.43;;;1.17;;
36315;SDS011;22343;50.820;2.666;2024-01-30T08:37:18;5.40;;;1.23;;
36315;SDS011;22343;50.820;2.666;2024-01-30T08:40:05;3.27;;;0.83;;
36315;SDS011;22343;50.820;2.666;2024-01-30T08:42:52;1.17;;;0.50;;
36315;SDS011;22343;50.820;2.666;2024-01-30T08:45:37;0.43;;;0.43;;
36315;SDS011;22343;50.820;2.666;2024-01-30T08:48:21;0.90;;;0.57;;
36315;SDS011;22343;50.820;2.666;2024-01-30T08:51:06;0.40;;;0.40;;
36315;SDS011;22343;50.820;2.666;2024-01-30T08:53:54;0.83;;;0.63;;
36315;SDS011;22343;50.820;2.666;2024-01-30T08:56:38;0.40;;;0.40;;
36315;SDS011;22343;50.820;2.666;2024-01-30T08:59:24;0.63;;;0.63;;
36315;SDS011;22343;50.820;2.666;2024-01-30T09:02:09;3.50;;;1.10;;
36315;SDS011;22343;50.820;2.666;2024-01-30T09:04:57;0.40;;;0.40;;
36315;SDS011;22343;50.820;2.666;2024-01-30T09:07:43;0.50;;;0.50;;
36315;SDS011;22343;50.820;2.666;2024-01-30T09:10:29;0.43;;;0.43;;
36315;SDS011;22343;50.820;2.666;2024-01-30T09:13:22;3.50;;;0.60;;
36315;SDS011;22343;50.820;2.666;2024-01-30T09:16:08;0.53;;;0.53;;
36315;SDS011;22343;50.820;2.666;2024-01-30T09:18:53;0.90;;;0.77;;
36315;SDS011;22343;50.820;2.666;2024-01-30T09:21:39;1.70;;;1.33;;
36315;SDS011;22343;50.820;2.666;2024-01-30T09:24:23;0.97;;;0.90;;
36315;SDS011;22343;50.820;2.666;2024-01-30T09:27:08;0.83;;;0.60;;
36315;SDS011;22343;50.820;2.666;2024-01-30T09:29:55;1.07;;;0.97;;
36315;SDS011;22343;50.820;2.666;2024-01-30T09:32:41;0.90;;;0.70;;
36315;SDS011;22343;50.820;2.666;2024-01-30T09:35:30;0.70;;;0.60;;
36315;SDS011;22343;50.820;2.666;2024-01-30T09:38:14;0.60;;;0.40;;
36315;SDS011;22343;50.820;2.666;2024-01-30T09:41:03;1.17;;;0.80;;
36315;SDS011;22343;50.820;2.666;2024-01-30T09:43:54;0.80;;;0.80;;
36315;SDS011;22343;50.820;2.666;2024-01-30T09:46:43;0.83;;;0.83;;
36315;SDS011;22343;50.820;2.666;2024-01-30T09:49:34;1.23;;;1.07;;
36315;SDS011;22343;50.820;2.666;2024-01-30T09:52:21;1.27;;;0.70;;
36315;SDS011;22343;50.820;2.666;2024-01-30T09:55:07;0.97;;;0.70;;
36315;SDS011;22343;50.820;2.666;2024-01-30T09:57:52;3.83;;;1.23;;
36315;SDS011;22343;50.820;2.666;2024-01-30T10:00:38;6.83;;;2.33;;
36315;SDS011;22343;50.820;2.666;2024-01-30T10:03:24;2.83;;;1.43;;
36315;SDS011;22343;50.820;2.666;2024-01-30T10:06:10;3.23;;;2.00;;
36315;SDS011;22343;50.820;2.666;2024-01-30T10:08:57;1.00;;;0.53;;
36315;SDS011;22343;50.820;2.666;2024-01-30T10:11:43;0.97;;;0.80;;
36315;SDS011;22343;50.820;2.666;2024-01-30T10:14:28;1.27;;;0.87;;
36315;SDS011;22343;50.820;2.666;2024-01-30T10:17:13;0.90;;;0.77;;
36315;SDS011;22343;50.820;2.666;2024-01-30T10:19:59;0.50;;;0.50;;
36315;SDS011;22343;50.820;2.666;2024-01-30T10:22:45;0.90;;;0.90;;
36315;SDS011;22343;50.820;2.666;2024-01-30T10:25:34;0.40;;;0.33;;
36315;SDS011;22343;50.820;2.666;2024-01-30T10:28:18;2.70;;;0.67;;
36315;SDS011;22343;50.820;2.666;2024-01-30T10:31:04;0.50;;;0.50;;
36315;SDS011;22343;50.820;2.666;2024-01-30T10:33:50;0.30;;;0.30;;
36315;SDS011;22343;50.820;2.666;2024-01-30T10:36:39;1.13;;;1.13;;
36315;SDS011;22343;50.820;2.666;2024-01-30T10:39:28;6.50;;;1.13;;
36315;SDS011;22343;50.820;2.666;2024-01-30T10:42:17;0.93;;;0.87;;
36315;SDS011;22343;50.820;2.666;2024-01-30T10:45:06;2.20;;;1.00;;
36315;SDS011;22343;50.820;2.666;2024-01-30T10:47:54;0.93;;;0.80;;
36315;SDS011;22343;50.820;2.666;2024-01-30T10:50:45;0.40;;;0.40;;
36315;SDS011;22343;50.820;2.666;2024-01-30T10:53:31;0.30;;;0.30;;
36315;SDS011;22343;50.820;2.666;2024-01-30T10:56:17;0.67;;;0.67;;
36315;SDS011;22343;50.820;2.666;2024-01-30T10:59:03;1.70;;;1.03;;
36315;SDS011;22343;50.820;2.666;2024-01-30T11:01:48;0.80;;;0.80;;
36315;SDS011;22343;50.820;2.666;2024-01-30T11:04:37;0.50;;;0.50;;
36315;SDS011;22343;50.820;2.666;2024-01-30T11:07:27;1.60;;;0.67;;
36315;SDS011;22343;50.820;2.666;2024-01-30T11:10:14;0.60;;;0.60;;
36315;SDS011;22343;50.820;2.666;2024-01-30T11:13:09;4.80;;;0.80;;
36315;SDS011;22343;50.820;2.666;2024-01-30T11:15:59;1.07;;;0.67;;
36315;SDS011;22343;50.820;2.666;2024-01-30T11:18:52;1.03;;;0.93;;
36315;SDS011;22343;50.820;2.666;2024-01-30T11:21:41;0.40;;;0.40;;
36315;SDS011;22343;50.820;2.666;2024-01-30T11:24:29;2.00;;;0.67;;
36315;SDS011;22343;50.820;2.666;2024-01-30T11:27:13;0.53;;;0.40;;
36315;SDS011;22343;50.820;2.666;2024-01-30T11:30:02;0.47;;;0.47;;
36315;SDS011;22343;50.820;2.666;2024-01-30T11:33:09;0.50;;;0.50;;
36315;SDS011;22343;50.820;2.666;2024-01-30T11:35:56;0.40;;;0.40;;
36315;SDS011;22343;50.820;2.666;2024-01-30T11:38:42;0.63;;;0.60;;
36315;SDS011;22343;50.820;2.666;2024-01-30T11:41:30;0.63;;;0.60;;
36315;SDS011;22343;50.820;2.666;2024-01-30T11:44:15;0.77;;;0.67;;
36315;SDS011;22343;50.820;2.666;2024-01-30T11:47:00;1.57;;;0.53;;
36315;SDS011;22343;50.820;2.666;2024-01-30T11:49:47;1.13;;;0.93;;
36315;SDS011;22343;50.820;2.666;2024-01-30T11:52:34;1.10;;;0.70;;
36315;SDS011;22343;50.820;2.666;2024-01-30T11:55:19;1.10;;;0.57;;
36315;SDS011;22343;50.820;2.666;2024-01-30T11:58:04;0.93;;;0.70;;
36315;SDS011;22343;50.820;2.666;2024-01-30T12:00:53;0.60;;;0.60;;
36315;SDS011;22343;50.820;2.666;2024-01-30T12:03:41;1.10;;;0.60;;
36315;SDS011;22343;50.820;2.666;2024-01-30T12:06:28;0.57;;;0.57;;
36315;SDS011;22343;50.820;2.666;2024-01-30T12:09:14;0.77;;;0.77;;
36315;SDS011;22343;50.820;2.666;2024-01-30T12:12:00;1.17;;;1.07;;
36315;SDS011;22343;50.820;2.666;2024-01-30T12:14:44;0.80;;;0.80;;
36315;SDS011;22343;50.820;2.666;2024-01-30T12:20:35;2.93;;;1.20;;
36315;SDS011;22343;50.820;2.666;2024-01-30T12:23:19;1.53;;;0.60;;
36315;SDS011;22343;50.820;2.666;2024-01-30T12:26:06;0.67;;;0.63;;
36315;SDS011;22343;50.820;2.666;2024-01-30T12:28:56;0.53;;;0.50;;
36315;SDS011;22343;50.820;2.666;2024-01-30T12:31:52;0.80;;;0.60;;
36315;SDS011;22343;50.820;2.666;2024-01-30T12:34:43;0.87;;;0.67;;
36315;SDS011;22343;50.820;2.666;2024-01-30T12:37:29;0.40;;;0.40;;
36315;SDS011;22343;50.820;2.666;2024-01-30T12:40:15;0.37;;;0.37;;
36315;SDS011;22343;50.820;2.666;2024-01-30T12:43:01;1.83;;;1.70;;
36315;SDS011;22343;50.820;2.666;2024-01-30T12:45:47;1.90;;;1.10;;
36315;SDS011;22343;50.820;2.666;2024-01-30T12:48:31;1.07;;;0.93;;
36315;SDS011;22343;50.820;2.666;2024-01-30T12:51:17;2.07;;;0.70;;
36315;SDS011;22343;50.820;2.666;2024-01-30T12:54:06;1.33;;;0.60;;
36315;SDS011;22343;50.820;2.666;2024-01-30T12:56:52;2.17;;;1.20;;
36315;SDS011;22343;50.820;2.666;2024-01-30T12:59:36;0.77;;;0.67;;
36315;SDS011;22343;50.820;2.666;2024-01-30T13:02:24;1.77;;;0.60;;
36315;SDS011;22343;50.820;2.666;2024-01-30T13:05:12;1.10;;;0.80;;
36315;SDS011;22343;50.820;2.666;2024-01-30T13:07:59;0.97;;;0.70;;
36315;SDS011;22343;50.820;2.666;2024-01-30T13:10:43;0.87;;;0.80;;
36315;SDS011;22343;50.820;2.666;2024-01-30T13:13:29;0.73;;;0.73;;
36315;SDS011;22343;50.820;2.666;2024-01-30T13:16:15;0.80;;;0.80;;
36315;SDS011;22343;50.820;2.666;2024-01-30T13:19:00;1.50;;;0.73;;
36315;SDS011;22343;50.820;2.666;2024-01-30T13:21:47;1.77;;;1.30;;
36315;SDS011;22343;50.820;2.666;2024-01-30T13:24:33;1.57;;;1.00;;
36315;SDS011;22343;50.820;2.666;2024-01-30T13:27:18;3.30;;;1.00;;
36315;SDS011;22343;50.820;2.666;2024-01-30T13:30:04;1.03;;;0.97;;
36315;SDS011;22343;50.820;2.666;2024-01-30T13:32:53;1.30;;;1.20;;
36315;SDS011;22343;50.820;2.666;2024-01-30T13:35:39;1.97;;;1.20;;
36315;SDS011;22343;50.820;2.666;2024-01-30T13:38:24;1.33;;;0.87;;
36315;SDS011;22343;50.820;2.666;2024-01-30T13:41:11;1.40;;;1.23;;
36315;SDS011;22343;50.820;2.666;2024-01-30T13:43:56;2.07;;;1.37;;
36315;SDS011;22343;50.820;2.666;2024-01-30T13:46:43;3.90;;;2.13;;
36315;SDS011;22343;50.820;2.666;2024-01-30T13:49:28;2.77;;;1.47;;
36315;SDS011;22343;50.820;2.666;2024-01-30T13:52:13;1.70;;;1.57;;
36315;SDS011;22343;50.820;2.666;2024-01-30T13:54:58;2.17;;;1.97;;
36315;SDS011;22343;50.820;2.666;2024-01-30T13:57:42;2.87;;;1.70;;
36315;SDS011;22343;50.820;2.666;2024-01-30T14:00:28;1.70;;;1.60;;
36315;SDS011;22343;50.820;2.666;2024-01-30T14:03:13;2.07;;;1.13;;
36315;SDS011;22343;50.820;2.666;2024-01-30T14:06:01;0.87;;;0.80;;
36315;SDS011;22343;50.820;2.666;2024-01-30T14:08:46;2.40;;;1.60;;
36315;SDS011;22343;50.820;2.666;2024-01-30T14:11:32;1.17;;;1.07;;
36315;SDS011;22343;50.820;2.666;2024-01-30T14:14:17;2.43;;;1.37;;
36315;SDS011;22343;50.820;2.666;2024-01-30T14:17:03;1.90;;;0.93;;
36315;SDS011;22343;50.820;2.666;2024-01-30T14:19:53;2.63;;;1.63;;
36315;SDS011;22343;50.820;2.666;2024-01-30T14:22:38;1.97;;;1.60;;
36315;SDS011;22343;50.820;2.666;2024-01-30T14:25:23;3.73;;;1.40;;
36315;SDS011;22343;50.820;2.666;2024-01-30T14:28:09;2.17;;;1.40;;
36315;SDS011;22343;50.820;2.666;2024-01-30T14:30:54;3.53;;;1.10;;
36315;SDS011;22343;50.820;2.666;2024-01-30T14:33:42;1.10;;;0.93;;
36315;SDS011;22343;50.820;2.666;2024-01-30T14:36:26;1.80;;;1.37;;
36315;SDS011;22343;50.820;2.666;2024-01-30T14:39:12;1.50;;;1.17;;
36315;SDS011;22343;50.820;2.666;2024-01-30T14:42:00;1.63;;;1.20;;
36315;SDS011;22343;50.820;2.666;2024-01-30T14:44:44;1.67;;;1.20;;
36315;SDS011;22343;50.820;2.666;2024-01-30T14:47:30;1.00;;;1.00;;
36315;SDS011;22343;50.820;2.666;2024-01-30T14:50:16;1.13;;;1.03;;
36315;SDS011;22343;50.820;2.666;2024-01-30T14:53:06;1.27;;;1.07;;
36315;SDS011;22343;50.820;2.666;2024-01-30T14:55:52;1.83;;;1.60;;
36315;SDS011;22343;50.820;2.666;2024-01-30T14:58:36;1.60;;;1.50;;
36315;SDS011;22343;50.820;2.666;2024-01-30T15:01:23;2.07;;;1.20;;
36315;SDS011;22343;50.820;2.666;2024-01-30T15:04:09;2.13;;;1.70;;
36315;SDS011;22343;50.820;2.666;2024-01-30T15:06:55;4.67;;;2.30;;
36315;SDS011;22343;50.820;2.666;2024-01-30T15:09:39;1.87;;;1.50;;
36315;SDS011;22343;50.820;2.666;2024-01-30T15:12:26;10.20;;;2.23;;
36315;SDS011;22343;50.820;2.666;2024-01-30T15:15:12;2.27;;;1.87;;
36315;SDS011;22343;50.820;2.666;2024-01-30T15:17:56;2.77;;;2.10;;
36315;SDS011;22343;50.820;2.666;2024-01-30T15:20:43;2.67;;;1.80;;
36315;SDS011;22343;50.820;2.666;2024-01-30T15:23:29;2.00;;;1.77;;
36315;SDS011;22343;50.820;2.666;2024-01-30T15:26:15;1.97;;;1.40;;
36315;SDS011;22343;50.820;2.666;2024-01-30T15:29:01;4.10;;;1.40;;
36315;SDS011;22343;50.820;2.666;2024-01-30T15:31:48;1.17;;;1.00;;
36315;SDS011;22343;50.820;2.666;2024-01-30T15:34:36;2.63;;;1.77;;
36315;SDS011;22343;50.820;2.666;2024-01-30T15:37:21;2.40;;;1.70;;
36315;SDS011;22343;50.820;2.666;2024-01-30T15:40:06;2.60;;;1.60;;
36315;SDS011;22343;50.820;2.666;2024-01-30T15:42:53;1.73;;;1.10;;
36315;SDS011;22343;50.820;2.666;2024-01-30T15:45:39;1.83;;;1.40;;
36315;SDS011;22343;50.820;2.666;2024-01-30T15:48:24;1.63;;;1.37;;
36315;SDS011;22343;50.820;2.666;2024-01-30T15:51:09;1.40;;;1.23;;
36315;SDS011;22343;50.820;2.666;2024-01-30T15:53:54;2.10;;;1.13;;
36315;SDS011;22343;50.820;2.666;2024-01-30T15:56:41;1.33;;;1.23;;
36315;SDS011;22343;50.820;2.666;2024-01-30T15:59:29;1.57;;;1.30;;
36315;SDS011;22343;50.820;2.666;2024-01-30T16:02:15;1.23;;;1.13;;
36315;SDS011;22343;50.820;2.666;2024-01-30T16:05:04;2.00;;;1.43;;
36315;SDS011;22343;50.820;2.666;2024-01-30T16:07:49;1.43;;;1.10;;
36315;SDS011;22343;50.820;2.666;2024-01-30T16:10:37;1.37;;;1.23;;
36315;SDS011;22343;50.820;2.666;2024-01-30T16:13:24;1.60;;;1.40;;
36315;SDS011;22343;50.820;2.666;2024-01-30T16:16:10;1.97;;;1.80;;
36315;SDS011;22343;50.820;2.666;2024-01-30T16:18:57;2.53;;;2.30;;
36315;SDS011;22343;50.820;2.666;2024-01-30T16:21:43;2.67;;;2.07;;
36315;SDS011;22343;50.820;2.666;2024-01-30T16:24:30;2.27;;;1.70;;
36315;SDS011;22343;50.820;2.666;2024-01-30T16:27:15;2.53;;;1.77;;
36315;SDS011;22343;50.820;2.666;2024-01-30T16:30:01;3.67;;;1.60;;
36315;SDS011;22343;50.820;2.666;2024-01-30T16:32:49;1.30;;;1.20;;
36315;SDS011;22343;50.820;2.666;2024-01-30T16:35:37;1.93;;;1.53;;
36315;SDS011;22343;50.820;2.666;2024-01-30T16:38:23;2.23;;;1.33;;
36315;SDS011;22343;50.820;2.666;2024-01-30T16:41:10;2.57;;;1.30;;
36315;SDS011;22343;50.820;2.666;2024-01-30T16:43:57;1.67;;;1.57;;
36315;SDS011;22343;50.820;2.666;2024-01-30T16:46:41;2.57;;;2.10;;